createdAt,value
2023-04-15T08:01:12.250Z,25.00
2023-04-15T08:02:12.404Z,25.00
2023-04-15T08:03:12.386Z,25.00
2023-04-15T08:04:12.491Z,25.00
2023-04-15T08:05:12.417Z,25.00
2023-04-15T08:06:12.510Z,25.00
2023-04-15T08:07:12.457Z,0.00
2023-04-15T08:08:12.455Z,0.00
2023-04-15T08:09:12.510Z,0.00
2023-04-15T08:10:12.554Z,0.00
2023-04-15T08:11:12.634Z,0.00
2023-04-15T08:12:12.684Z,0.00
2023-04-15T08:13:12.702Z,0.00
2023-04-15T08:14:12.756Z,0.00
2023-04-15T08:15:12.797Z,0.00
2023-04-15T08:16:12.852Z,0.00
2023-04-15T08:17:12.843Z,0.00
2023-04-15T08:18:12.904Z,0.00
2023-04-15T08:19:12.957Z,0.00
2023-04-15T08:20:12.985Z,0.00
2023-04-15T08:21:13.145Z,0.00
2023-04-15T08:22:18.489Z,0.00
2023-04-15T08:23:13.980Z,0.00
2023-04-15T08:24:13.030Z,0.00
2023-04-15T08:25:12.997Z,0.00
2023-04-15T08:26:12.997Z,0.00
2023-04-15T08:27:12.973Z,0.00
2023-04-15T08:28:12.959Z,0.00
2023-04-15T08:29:13.001Z,0.00
2023-04-15T08:30:12.950Z,0.00
2023-04-15T08:31:13.001Z,22.95
2023-04-15T08:32:12.918Z,25.72
2023-04-15T08:33:12.914Z,25.55
2023-04-15T08:34:12.917Z,26.41
2023-04-15T08:35:12.915Z,24.02
2023-04-15T08:36:12.911Z,26.07
2023-04-15T08:37:12.912Z,25.03
2023-04-15T08:38:12.877Z,26.31
2023-04-15T08:39:12.881Z,25.81
2023-04-15T08:40:12.894Z,25.71
2023-04-15T08:41:12.857Z,27.57
2023-04-15T08:42:12.849Z,26.05
2023-04-15T08:43:12.839Z,25.00
2023-04-15T08:44:12.878Z,25.00
2023-04-15T08:45:12.840Z,25.00
2023-04-15T08:46:12.835Z,26.50
2023-04-15T08:47:12.821Z,26.09
2023-04-15T08:48:12.823Z,25.76
2023-04-15T08:49:12.916Z,25.00
2023-04-15T08:50:12.856Z,25.00
2023-04-15T08:51:12.869Z,27.02
2023-04-15T08:52:12.858Z,28.24
2023-04-15T08:53:12.877Z,26.39
2023-04-15T08:54:12.894Z,25.87
2023-04-15T08:55:12.899Z,26.30
2023-04-15T08:56:12.910Z,27.44
2023-04-15T08:57:12.948Z,29.84
2023-04-15T08:58:12.945Z,29.09
2023-04-15T08:59:12.950Z,28.06
2023-04-15T09:00:12.957Z,25.48
2023-04-15T09:01:13.017Z,28.86
2023-04-15T09:02:13.007Z,29.91
2023-04-15T09:03:13.051Z,25.00
2023-04-15T09:04:13.060Z,25.79
2023-04-15T09:05:12.990Z,29.12
2023-04-15T09:06:12.982Z,31.81
2023-04-15T09:07:13.022Z,26.70
2023-04-15T09:08:13.044Z,28.64
2023-04-15T09:09:13.041Z,26.35
2023-04-15T09:10:13.028Z,28.04
2023-04-15T09:11:13.040Z,25.22
2023-04-15T09:12:13.078Z,28.80
2023-04-15T09:13:13.046Z,29.31
2023-04-15T09:14:13.088Z,26.78
2023-04-15T09:15:13.097Z,27.98
2023-04-15T09:16:13.098Z,30.54
2023-04-15T09:17:13.052Z,26.54
2023-04-15T09:18:13.068Z,26.77
2023-04-15T09:19:13.066Z,27.74
2023-04-15T09:20:13.056Z,22.37
2023-04-15T09:21:13.093Z,0.00
2023-04-15T09:22:13.074Z,0.00
2023-04-15T09:23:13.126Z,0.00
2023-04-15T09:24:13.184Z,59.13
2023-04-15T09:25:13.189Z,55.34
2023-04-15T09:26:13.223Z,53.27
2023-04-15T09:27:13.317Z,72.45
2023-04-15T09:28:13.336Z,69.34
2023-04-15T09:29:13.458Z,69.51
2023-04-15T09:30:13.424Z,75.71
2023-04-15T09:31:13.454Z,81.41
2023-04-15T09:32:13.551Z,82.65
2023-04-15T09:33:13.509Z,94.00
2023-04-15T09:34:13.571Z,103.95
2023-04-15T09:35:13.578Z,111.64
2023-04-15T09:36:13.630Z,117.09
2023-04-15T09:37:28.533Z,120.83
2023-04-15T09:38:14.640Z,121.08
2023-04-15T09:39:13.617Z,121.32
2023-04-15T09:40:13.653Z,119.70
2023-04-15T09:41:13.704Z,120.79
2023-04-15T09:42:13.637Z,115.70
2023-04-15T09:43:13.600Z,117.17
2023-04-15T09:44:13.624Z,117.63
2023-04-15T09:45:13.592Z,115.82
2023-04-15T09:46:13.664Z,115.98
2023-04-15T09:47:13.575Z,117.39
2023-04-15T09:48:13.573Z,114.60
2023-04-15T09:49:13.615Z,116.45
2023-04-15T09:50:13.574Z,117.26
2023-04-15T09:51:13.565Z,116.29
2023-04-15T09:52:13.554Z,116.42
2023-04-15T09:53:13.527Z,115.05
2023-04-15T09:54:13.518Z,114.66
2023-04-15T09:55:13.509Z,114.21
2023-04-15T09:56:13.512Z,110.88
2023-04-15T09:57:13.494Z,114.52
2023-04-15T09:58:13.491Z,111.66
2023-04-15T09:59:13.476Z,111.59
2023-04-15T10:00:13.487Z,112.22
2023-04-15T10:01:13.532Z,112.66
2023-04-15T10:02:13.543Z,111.79
2023-04-15T10:03:13.572Z,111.32
2023-04-15T10:04:13.498Z,112.75
2023-04-15T10:05:13.447Z,110.34
2023-04-15T10:06:13.473Z,110.37
2023-04-15T10:07:13.435Z,110.96
2023-04-15T10:08:13.436Z,108.07
2023-04-15T10:09:13.442Z,108.98
2023-04-15T10:10:13.454Z,113.73
2023-04-15T10:11:13.465Z,110.90
2023-04-15T10:12:13.457Z,112.39
2023-04-15T10:13:13.479Z,112.80
2023-04-15T10:14:13.471Z,112.49
2023-04-15T10:15:13.484Z,109.98
2023-04-15T10:16:13.522Z,111.91
2023-04-15T10:17:13.476Z,108.45
2023-04-15T10:18:13.489Z,110.20
2023-04-15T10:19:13.493Z,111.71
2023-04-15T10:20:13.518Z,110.04
2023-04-15T10:21:13.529Z,109.76
2023-04-15T10:22:13.491Z,110.86
2023-04-15T10:23:13.588Z,109.96
2023-04-15T10:24:13.522Z,110.89
2023-04-15T10:25:13.499Z,109.02
2023-04-15T10:26:13.520Z,109.28
2023-04-15T10:27:13.502Z,112.35
2023-04-15T10:28:13.522Z,110.67
2023-04-15T10:29:13.509Z,109.30
2023-04-15T10:30:13.503Z,111.91
2023-04-15T10:31:13.634Z,112.85
2023-04-15T10:32:13.509Z,111.34
2023-04-15T10:33:13.505Z,110.70
2023-04-15T10:34:13.545Z,112.40
2023-04-15T10:35:13.487Z,112.09
2023-04-15T10:36:13.523Z,108.78
2023-04-15T10:37:13.515Z,109.90
2023-04-15T10:38:13.515Z,112.23
2023-04-15T10:39:13.528Z,111.34
2023-04-15T10:40:13.539Z,109.91
2023-04-15T10:41:13.509Z,109.27
2023-04-15T10:42:13.528Z,110.87
2023-04-15T10:43:13.494Z,113.49
2023-04-15T10:44:13.490Z,110.31
2023-04-15T10:45:13.495Z,111.87
2023-04-15T10:46:13.499Z,111.74
2023-04-15T10:47:13.479Z,113.02
2023-04-15T10:48:13.540Z,111.53
2023-04-15T10:49:13.509Z,110.10
2023-04-15T10:50:13.504Z,113.18
2023-04-15T10:51:13.504Z,112.58
2023-04-15T10:52:13.554Z,111.04
2023-04-15T10:53:13.538Z,109.61
2023-04-15T10:54:13.551Z,112.42
2023-04-15T10:55:13.556Z,110.15
2023-04-15T10:56:13.545Z,111.88
2023-04-15T10:57:13.549Z,109.88
2023-04-15T10:58:13.577Z,111.15
2023-04-15T10:59:13.617Z,111.55
2023-04-15T11:00:13.740Z,111.24
2023-04-15T11:01:13.634Z,111.30
2023-04-15T11:02:13.734Z,113.20
2023-04-15T11:03:13.769Z,111.40
2023-04-15T11:04:13.766Z,115.19
2023-04-15T11:05:13.724Z,111.43
2023-04-15T11:06:13.741Z,110.66
2023-04-15T11:07:13.741Z,109.97
2023-04-15T11:08:13.852Z,109.06
2023-04-15T11:09:13.823Z,109.48
2023-04-15T11:10:13.841Z,113.27
2023-04-15T11:11:13.845Z,113.57
2023-04-15T11:12:13.844Z,113.24
2023-04-15T11:13:13.892Z,112.91
2023-04-15T11:14:13.902Z,108.38
2023-04-15T11:15:13.986Z,114.30
2023-04-15T11:16:14.040Z,113.14
2023-04-15T11:17:14.054Z,108.94
2023-04-15T11:18:14.104Z,111.19
2023-04-15T11:19:14.119Z,111.28
2023-04-15T11:20:14.160Z,110.90
2023-04-15T11:21:14.206Z,111.42
2023-04-15T11:22:14.162Z,111.75
2023-04-15T11:23:15.748Z,112.38
2023-04-15T11:24:14.261Z,110.21
2023-04-15T11:25:14.312Z,113.42
2023-04-15T11:26:14.354Z,114.46
2023-04-15T11:27:14.401Z,111.78
2023-04-15T11:28:14.442Z,112.07
2023-04-15T11:29:14.487Z,110.85
2023-04-15T11:30:14.492Z,112.41
2023-04-15T11:31:14.561Z,112.80
2023-04-15T11:32:14.693Z,112.58
2023-04-15T11:33:14.743Z,112.27
2023-04-15T11:34:14.686Z,113.20
2023-04-15T11:35:14.716Z,111.21
2023-04-15T11:36:14.825Z,112.74
2023-04-15T11:37:14.858Z,112.71
2023-04-15T11:38:14.915Z,113.91
2023-04-15T11:39:14.968Z,107.64
2023-04-15T11:40:15.011Z,111.44
2023-04-15T11:41:15.199Z,111.13
2023-04-15T11:42:15.149Z,114.04
2023-04-15T11:43:15.209Z,108.25
2023-04-15T11:44:15.303Z,110.86
2023-04-15T11:45:15.332Z,112.43
2023-04-15T11:46:15.504Z,110.98
2023-04-15T11:47:15.464Z,111.08
2023-04-15T11:48:15.508Z,113.21
2023-04-15T11:49:15.541Z,111.04
2023-04-15T11:50:15.641Z,110.30
2023-04-15T11:51:15.682Z,112.58
2023-04-15T11:52:15.749Z,110.32
2023-04-15T11:53:15.775Z,111.11
2023-04-15T11:54:15.881Z,111.15
2023-04-15T11:55:15.919Z,110.29
2023-04-15T11:56:15.956Z,110.88
2023-04-15T11:57:16.047Z,109.61
2023-04-15T11:58:16.577Z,108.35
2023-04-15T11:59:16.149Z,112.11
2023-04-15T12:00:16.252Z,109.31
2023-04-15T12:01:16.370Z,108.14
2023-04-15T12:02:16.474Z,111.93
2023-04-15T12:03:16.634Z,111.28
2023-04-15T12:04:16.610Z,111.67
2023-04-15T12:05:16.547Z,110.63
2023-04-15T12:06:16.829Z,109.21
2023-04-15T12:07:16.650Z,109.56
2023-04-15T12:08:16.691Z,108.27
2023-04-15T12:09:16.802Z,109.52
2023-04-15T12:10:16.797Z,109.72
2023-04-15T12:11:16.864Z,109.06
2023-04-15T12:12:16.943Z,108.81
2023-04-15T12:13:17.027Z,108.71
2023-04-15T12:14:17.083Z,108.54
2023-04-15T12:15:17.125Z,111.19
2023-04-15T12:16:17.230Z,108.04
2023-04-15T12:17:17.272Z,110.77
2023-04-15T12:18:17.307Z,107.63
2023-04-15T12:19:17.350Z,112.57
2023-04-15T12:20:17.397Z,111.83
2023-04-15T12:21:17.521Z,111.67
2023-04-15T12:22:17.560Z,110.79
2023-04-15T12:23:17.565Z,112.52
2023-04-15T12:24:17.627Z,109.18
2023-04-15T12:25:17.727Z,111.81
2023-04-15T12:26:17.747Z,111.83
2023-04-15T12:27:17.914Z,112.91
2023-04-15T12:28:17.888Z,113.59
2023-04-15T12:29:17.984Z,111.25
2023-04-15T12:30:18.027Z,110.82
2023-04-15T12:31:18.114Z,111.94
2023-04-15T12:32:18.191Z,108.77
2023-04-15T12:33:18.202Z,110.48
2023-04-15T12:34:18.249Z,108.92
2023-04-15T12:35:18.292Z,110.84
2023-04-15T12:36:18.346Z,112.25
2023-04-15T12:37:18.421Z,109.74
2023-04-15T12:38:18.464Z,110.51
2023-04-15T12:39:18.509Z,110.55
2023-04-15T12:40:18.566Z,110.11
2023-04-15T12:41:18.701Z,108.79
2023-04-15T12:42:18.834Z,106.57
2023-04-15T12:43:18.750Z,107.14
2023-04-15T12:44:18.819Z,107.46
2023-04-15T12:45:18.855Z,109.50
2023-04-15T12:46:18.945Z,108.60
2023-04-15T12:47:19.112Z,105.92
2023-04-15T12:48:19.029Z,104.58
2023-04-15T12:49:19.086Z,105.32
2023-04-15T12:50:19.146Z,108.42
2023-04-15T12:51:19.195Z,107.25
2023-04-15T12:52:19.251Z,105.86
2023-04-15T12:53:19.299Z,105.29
2023-04-15T12:54:19.348Z,104.34
2023-04-15T12:55:19.443Z,108.91
2023-04-15T12:56:19.482Z,106.63
2023-04-15T12:57:19.532Z,110.38
2023-04-15T12:58:19.570Z,107.31
2023-04-15T12:59:19.626Z,104.72
2023-04-15T13:00:19.719Z,105.98
